Time;durP1;ratioP1;P1;durP2;ratioP2;P2;SDS_P1;SDS_P2;PMS_P1;PMS_P2;Temp;Humidity;BMP_temperature;BMP_pressure;BME280_temperature;BME280_humidity;BME280_pressure;Samples;Min_cycle;Max_cycle;Signal;HPM_P1;HPM_P2
2021/12/23 00:02:38;;;;;;;33.63;18.10;;;0.70;75.70;;;1.03;54.22;99075.28;4906708;28;124210;-88
2021/12/23 00:05:24;;;;;;;38.00;19.90;;;0.60;75.60;;;0.99;54.42;99068.66;4886333;28;119328;-89
2021/12/23 00:08:10;;;;;;;37.97;19.03;;;0.60;75.70;;;0.96;54.32;99061.81;4896478;28;118910;-89
2021/12/23 00:14:18;;;;;;;34.17;18.53;;;0.50;76.10;;;0.82;54.44;99058.56;4900275;28;124761;-89
2021/12/23 00:16:47;;;;;;;37.20;19.23;;;0.50;76.10;;;0.82;55.29;99052.28;4912966;28;119998;-87
2021/12/23 00:29:23;;;;;;;33.30;17.20;;;0.40;76.30;;;0.78;55.48;99056.56;4899369;28;119788;-89
2021/12/23 00:32:13;;;;;;;34.07;18.67;;;0.40;76.30;;;0.79;55.33;99048.16;4914202;28;118669;-89
2021/12/23 00:35:37;;;;;;;33.23;17.20;;;0.50;76.40;;;0.81;55.47;99047.94;4898786;28;123455;-89
2021/12/23 00:38:14;;;;;;;31.73;17.20;;;0.40;76.40;;;0.78;55.06;99042.97;4915388;28;124442;-89
2021/12/23 00:40:43;;;;;;;32.77;16.87;;;0.40;76.40;;;0.79;55.28;99040.00;4916046;28;119773;-89
2021/12/23 00:44:07;;;;;;;36.50;18.13;;;0.40;76.50;;;0.86;55.52;99037.13;4916622;28;117776;-90
2021/12/23 00:46:33;;;;;;;33.57;17.80;;;0.40;76.60;;;0.80;55.57;99038.94;4914031;28;123939;-89
2021/12/23 00:49:01;;;;;;;32.07;16.83;;;0.40;76.50;;;0.83;54.98;99024.03;4914360;28;124216;-90
2021/12/23 00:58:51;;;;;;;37.00;18.20;;;0.40;76.70;;;0.81;55.52;99021.56;4910946;28;125019;-89
2021/12/23 01:01:20;;;;;;;32.20;18.60;;;0.40;76.60;;;0.82;55.54;99019.66;4893893;28;123595;-89
2021/12/23 01:04:43;;;;;;;36.60;17.80;;;0.40;76.70;;;0.90;54.83;99026.59;4887871;28;119919;-89
2021/12/23 01:07:49;;;;;;;28.60;16.87;;;0.40;76.80;;;0.88;55.42;99013.25;4888057;28;119558;-89
2021/12/23 01:10:18;;;;;;;33.07;17.40;;;0.40;76.80;;;0.83;55.49;99010.41;4894644;28;124124;-89
2021/12/23 01:13:06;;;;;;;34.17;16.80;;;0.50;76.80;;;0.86;54.87;98999.91;4895081;28;124505;-89
2021/12/23 01:18:59;;;;;;;36.63;19.30;;;0.40;76.80;;;0.89;55.19;99009.47;4882059;28;119567;-90
2021/12/23 01:21:45;;;;;;;35.27;17.47;;;0.40;76.80;;;0.88;55.38;99008.63;4898677;28;124792;-88
2021/12/23 01:28:13;;;;;;;35.10;18.30;;;0.40;76.90;;;0.87;55.42;99017.84;4890659;28;119801;-89
2021/12/23 01:30:41;;;;;;;38.60;19.93;;;0.40;76.80;;;0.84;54.91;98999.31;4901831;28;117996;-90
2021/12/23 01:36:49;;;;;;;32.30;18.30;;;0.40;76.90;;;0.84;54.68;98985.72;4901971;28;124800;-88
2021/12/23 01:39:16;;;;;;;36.50;17.47;;;0.40;76.80;;;0.82;55.01;98990.56;4900880;28;120005;-89
2021/12/23 01:41:45;;;;;;;30.43;17.87;;;2.10;78.30;;;0.85;55.45;98981.09;4898477;28;119737;-89
2021/12/23 01:44:13;;;;;;;36.13;19.33;;;0.40;76.80;;;0.81;54.88;98969.88;4881287;28;123931;-88
2021/12/23 01:50:27;;;;;;;33.67;18.13;;;0.40;76.80;;;0.78;54.97;98964.09;4883725;28;120257;-86
2021/12/23 01:53:31;;;;;;;35.67;18.20;;;0.40;76.80;;;0.80;54.78;98962.78;4897736;28;119579;-88
2021/12/23 01:59:40;;;;;;;35.83;18.00;;;0.40;76.90;;;0.69;54.86;98965.56;4902065;28;124717;-84
2021/12/23 02:02:44;;;;;;;30.00;17.17;;;0.30;76.80;;;0.73;55.52;98955.88;4882421;28;118815;-87
2021/12/23 02:08:53;;;;;;;32.40;16.80;;;0.30;77.00;;;0.69;55.45;98943.81;4901466;28;125132;-87
2021/12/23 02:15:01;;;;;;;31.20;18.23;;;0.30;77.10;;;0.66;54.93;98939.69;4888515;28;120333;-87
2021/12/23 02:18:05;;;;;;;36.57;19.07;;;0.30;77.00;;;0.73;54.91;98934.13;4901538;28;117807;-88
2021/12/23 02:24:15;;;;;;;29.43;17.20;;;0.30;77.10;;;0.66;55.10;98928.81;4901833;28;124105;-88
2021/12/23 02:30:28;;;;;;;28.30;15.27;;;0.30;76.90;;;0.63;55.46;98929.31;4902049;28;120036;-89
2021/12/23 02:36:36;;;;;;;31.60;15.43;;;0.30;76.90;;;0.69;55.25;98920.16;4896193;28;124740;-87
2021/12/23 02:39:05;;;;;;;30.73;17.30;;;0.30;76.90;;;0.73;55.03;98918.63;4899471;28;122134;-89
2021/12/23 02:48:55;;;;;;;33.53;16.17;;;0.40;76.90;;;0.79;55.08;98901.31;4897758;28;124871;-88
2021/12/23 02:52:19;;;;;;;29.07;16.37;;;0.40;76.80;;;0.86;54.44;98895.69;4874756;28;118918;-88
2021/12/23 02:55:24;;;;;;;32.33;16.03;;;0.40;76.80;;;0.85;55.13;98900.31;4878761;28;119525;-89
2021/12/23 03:01:51;;;;;;;30.80;16.23;;;0.40;76.60;;;0.87;54.29;98898.19;4884081;28;124250;-88
2021/12/23 03:08:01;;;;;;;31.77;15.70;;;0.50;76.60;;;0.93;55.05;98892.84;4882097;29;120184;-87
2021/12/23 03:14:11;;;;;;;30.40;16.00;;;-1.50;74.70;;;0.99;54.33;98887.22;4881717;29;124894;-88
2021/12/23 03:17:20;;;;;;;29.07;15.80;;;0.50;76.40;;;1.07;54.62;98881.34;4880551;29;118816;-88
2021/12/23 03:19:46;;;;;;;30.10;16.40;;;0.50;76.30;;;1.06;54.63;98884.34;4878640;29;119730;-88
2021/12/23 03:25:55;;;;;;;31.90;16.07;;;0.60;76.30;;;1.12;54.14;98864.28;4887185;28;124733;-88
2021/12/23 03:28:41;;;;;;;31.43;17.17;;;0.60;76.20;;;1.17;54.32;98853.47;4885004;28;117116;-88
2021/12/23 03:31:10;;;;;;;33.40;17.80;;;0.60;76.10;;;1.13;53.53;98860.50;4897499;28;118745;-87
2021/12/23 03:33:36;;;;;;;32.80;17.33;;;0.60;75.90;;;1.12;54.33;98856.13;4880599;28;122976;-88
2021/12/23 03:36:05;;;;;;;28.87;16.93;;;0.60;76.00;;;1.14;54.21;98856.72;4890921;28;123919;-88
2021/12/23 03:39:28;;;;;;;32.37;17.53;;;0.60;76.00;;;1.21;53.62;98849.19;4869960;28;119711;-88
2021/12/23 03:45:38;;;;;;;33.60;17.23;;;0.70;76.00;;;1.12;54.10;98834.34;4877638;28;123949;-88
2021/12/23 03:48:06;;;;;;;33.00;17.10;;;0.60;75.90;;;1.11;54.01;98832.72;4891808;28;123012;-88
2021/12/23 03:50:35;;;;;;;31.07;16.73;;;0.60;75.90;;;1.15;53.59;98822.16;4873715;28;118866;-89
2021/12/23 03:53:21;;;;;;;28.40;16.33;;;0.60;75.90;;;1.17;53.81;98820.84;4876278;28;118880;-87
2021/12/23 03:55:49;;;;;;;30.80;16.53;;;0.60;75.90;;;1.13;53.67;98816.13;4884155;28;123677;-88
2021/12/23 03:58:16;;;;;;;33.87;16.83;;;0.70;75.90;;;1.16;53.55;98810.22;4865021;28;123235;-89
2021/12/23 04:00:44;;;;;;;27.80;16.17;;;0.50;75.80;;;1.18;54.18;98803.41;4881559;28;118694;-87
2021/12/23 04:03:13;;;;;;;30.80;15.70;;;1.20;76.40;;;1.20;53.96;98804.00;4912988;28;118721;-88
2021/12/23 04:09:21;;;;;;;24.87;14.20;;;0.70;75.90;;;1.22;53.37;98806.47;4913823;28;124317;-87
2021/12/23 04:11:49;;;;;;;33.73;16.67;;;0.70;75.80;;;1.23;54.06;98808.94;4892490;28;118596;-88
2021/12/23 04:14:15;;;;;;;28.27;15.70;;;0.80;75.90;;;1.27;54.02;98806.56;4891121;28;118642;-87
2021/12/23 04:16:44;;;;;;;28.07;14.87;;;0.80;75.80;;;1.28;53.55;98806.28;4893177;28;123672;-88
2021/12/23 04:19:11;;;;;;;29.23;15.50;;;0.80;75.80;;;1.32;53.48;98803.91;4908111;28;123523;-89
2021/12/23 04:21:57;;;;;;;25.40;13.50;;;0.80;75.80;;;1.37;53.13;98798.53;4893752;28;117745;-88
2021/12/23 04:24:24;;;;;;;26.07;12.70;;;0.80;75.60;;;1.36;53.76;98801.50;4900596;28;118349;-88
2021/12/23 04:26:53;;;;;;;27.00;14.50;;;0.90;75.70;;;1.39;53.71;98790.91;4906272;28;123426;-88
2021/12/23 04:29:39;;;;;;;29.03;14.80;;;0.90;75.70;;;1.45;53.02;98784.47;4892022;28;123223;-88
2021/12/23 04:32:08;;;;;;;29.30;15.47;;;0.90;75.40;;;1.41;53.07;98779.78;4908614;28;119003;-88
2021/12/23 04:34:55;;;;;;;27.10;13.60;;;0.90;75.40;;;1.45;52.88;98773.59;4906322;28;119701;-88
2021/12/23 04:41:03;;;;;;;26.00;14.20;;;0.90;75.30;;;1.40;52.94;98764.50;4912708;28;124254;-88
2021/12/23 04:43:48;;;;;;;24.67;14.83;;;0.90;75.20;;;1.44;52.79;98757.50;4894033;28;118413;-88
2021/12/23 04:46:33;;;;;;;23.73;12.70;;;0.90;75.10;;;1.45;52.90;98762.69;4903686;28;116095;-88
2021/12/23 04:49:00;;;;;;;25.97;13.73;;;0.90;75.10;;;1.45;53.14;98767.28;4906752;28;123810;-88
2021/12/23 04:52:05;;;;;;;22.53;12.70;;;1.00;75.20;;;1.52;53.27;98757.84;4891497;28;123103;-88
2021/12/23 04:55:12;;;;;;;28.43;14.40;;;1.00;75.20;;;1.54;53.25;98765.78;4910047;28;118178;-88
2021/12/23 04:57:39;;;;;;;24.60;13.03;;;1.00;75.10;;;1.50;53.35;98760.00;4885657;28;118419;-88
2021/12/23 05:00:11;;;;;;;26.00;13.40;;;1.00;75.00;;;1.53;53.22;98754.09;4903793;28;123719;-88
2021/12/23 05:02:39;;;;;;;23.90;13.20;;;1.00;75.00;;;1.54;53.25;98741.28;4901279;28;124392;-87
2021/12/23 05:05:08;;;;;;;23.33;12.50;;;1.10;75.10;;;1.59;53.12;98733.19;4900589;28;119184;-88
2021/12/23 05:07:35;;;;;;;28.97;14.43;;;1.10;75.10;;;1.62;52.71;98737.28;4893623;28;118092;-87
2021/12/23 05:14:21;;;;;;;28.07;14.23;;;1.10;74.80;;;1.58;52.72;98734.22;4901972;28;123770;-87
2021/12/23 05:24:30;;;;;;;30.63;16.27;;;0.90;74.80;;;1.26;52.46;98743.16;4896680;28;124556;-89
2021/12/23 05:27:18;;;;;;;24.47;14.43;;;0.80;74.40;;;1.29;53.21;98737.19;4892090;28;123862;-88
2021/12/23 05:29:45;;;;;;;29.73;15.60;;;0.80;74.50;;;1.26;53.08;98745.88;4897825;28;119400;-89
2021/12/23 05:32:12;;;;;;;26.30;13.80;;;0.80;74.60;;;1.29;52.71;98739.06;4895440;28;119609;-89
2021/12/23 05:34:40;;;;;;;24.70;14.10;;;0.80;74.70;;;1.35;53.34;98754.41;4909536;28;123051;-88
2021/12/23 05:37:26;;;;;;;25.40;13.33;;;0.90;74.90;;;1.43;52.69;98753.13;4879868;28;121760;-87
2021/12/23 05:39:52;;;;;;;27.07;14.63;;;0.90;74.80;;;1.41;52.82;98749.84;4902197;28;119154;-88
2021/12/23 05:42:57;;;;;;;27.17;14.33;;;0.90;74.80;;;1.49;52.92;98743.94;4906956;28;117903;-88
2021/12/23 05:45:26;;;;;;;22.53;12.60;;;0.90;74.90;;;1.47;52.60;98744.19;4892317;28;123347;-86
2021/12/23 05:47:57;;;;;;;26.10;14.53;;;1.00;74.90;;;1.50;52.95;98737.41;4890866;28;123442;-88
2021/12/23 05:50:25;;;;;;;28.53;14.93;;;1.00;74.90;;;1.51;52.68;98728.19;4886687;28;118606;-88
2021/12/23 05:52:52;;;;;;;25.90;14.30;;;1.00;74.90;;;1.52;52.76;98713.47;4908412;28;119351;-88
2021/12/23 05:55:20;;;;;;;24.93;14.27;;;1.90;75.60;;;1.53;52.38;98706.94;4890037;28;123147;-88
2021/12/23 06:01:29;;;;;;;26.00;15.03;;;1.00;74.60;;;1.45;52.96;98704.69;4898952;28;119687;-88
2021/12/23 06:04:54;;;;;;;30.93;15.60;;;1.00;74.50;;;1.47;52.91;98705.25;4908566;28;118769;-86
2021/12/23 06:11:02;;;;;;;27.57;15.10;;;1.00;74.60;;;1.42;52.70;98708.72;4899299;28;125037;-88
2021/12/23 06:14:08;;;;;;;27.00;13.60;;;1.00;74.70;;;1.51;53.15;98698.25;4895764;28;119447;-88
2021/12/23 06:16:55;;;;;;;28.00;15.03;;;1.00;74.70;;;1.53;53.02;98691.47;4899388;28;118718;-88
2021/12/23 06:19:21;;;;;;;30.63;14.50;;;1.00;74.80;;;1.52;52.40;98700.69;4903037;28;123317;-88
2021/12/23 06:21:49;;;;;;;21.23;13.07;;;1.10;74.90;;;1.55;53.32;98700.16;4893538;28;122521;-88
2021/12/23 06:24:17;;;;;;;29.10;15.97;;;1.10;75.00;;;1.59;52.77;98705.13;4909928;28;119933;-88
2021/12/23 06:26:44;;;;;;;31.40;15.50;;;1.10;74.90;;;1.58;52.47;98689.84;4910793;28;119668;-88
2021/12/23 06:29:30;;;;;;;31.23;14.80;;;1.10;74.70;;;1.58;52.85;98701.56;4902099;28;123117;-88
2021/12/23 06:31:59;;;;;;;26.43;15.17;;;1.10;74.70;;;1.53;52.80;98704.22;4913610;28;123676;-88
2021/12/23 06:35:05;;;;;;;40.03;17.83;;;1.00;74.60;;;1.51;52.30;98695.50;4909737;28;118145;-88
2021/12/23 06:37:34;;;;;;;32.00;16.10;;;1.00;74.30;;;1.40;53.10;98691.00;4884640;28;117902;-88
2021/12/23 06:40:20;;;;;;;27.17;13.80;;;1.00;74.40;;;1.43;53.05;98710.41;4877928;28;122476;-88
2021/12/23 06:46:28;;;;;;;26.73;14.17;;;1.00;74.50;;;1.37;52.91;98694.25;4904809;28;119684;-89
2021/12/23 06:52:38;;;;;;;27.93;14.40;;;0.90;74.30;;;1.36;53.13;98711.66;4907340;28;125213;-89
2021/12/23 06:55:31;;;;;;;25.53;15.37;;;0.90;74.30;;;1.42;53.09;98705.19;4901992;28;122916;-88
2021/12/23 06:58:18;;;;;;;27.97;15.67;;;1.00;74.50;;;1.45;53.02;98701.97;4904944;28;118580;-88
2021/12/23 07:01:22;;;;;;;26.57;15.50;;;1.00;74.60;;;1.46;52.98;98703.63;4903602;28;118680;-87
2021/12/23 07:06:22;;;;;;;26.27;14.43;;;0.90;74.50;;;1.41;52.67;98707.09;4879953;28;123666;-89
2021/12/23 07:08:53;;;;;;;24.07;14.40;;;0.90;74.50;;;1.44;53.10;98711.22;4868749;28;118769;-88
2021/12/23 07:11:23;;;;;;;26.20;13.90;;;1.00;74.60;;;1.47;52.95;98707.97;4900409;28;117316;-89
2021/12/23 07:13:51;;;;;;;27.97;14.83;;;1.10;74.80;;;1.46;52.94;98704.44;4885239;28;124129;-88
2021/12/23 07:16:55;;;;;;;26.60;14.30;;;1.00;74.60;;;1.50;52.53;98699.28;4874383;28;123149;-88
2021/12/23 07:20:18;;;;;;;26.00;14.47;;;1.00;74.70;;;1.49;52.44;98697.66;4869628;28;119209;-87
2021/12/23 07:26:25;;;;;;;27.00;13.77;;;0.90;74.60;;;1.37;52.84;98691.53;4885479;28;124279;-87
2021/12/23 07:29:10;;;;;;;30.80;16.23;;;0.90;74.50;;;1.40;52.87;98688.28;4884132;28;122591;-88
2021/12/23 07:31:57;;;;;;;25.47;13.73;;;0.90;74.50;;;1.40;53.16;98696.47;4884708;28;118825;-88
2021/12/23 07:34:24;;;;;;;21.63;13.00;;;0.90;74.50;;;1.38;52.83;98688.56;4880813;28;118145;-88
2021/12/23 07:37:28;;;;;;;22.00;13.20;;;0.90;74.60;;;1.48;52.74;98696.03;4885943;28;121924;-87
2021/12/23 07:40:17;;;;;;;32.87;14.77;;;0.90;74.70;;;1.49;53.15;98687.59;4885896;28;123290;-88
2021/12/23 07:46:29;;;;;;;36.13;15.40;;;1.00;74.70;;;1.47;52.48;98684.28;4886167;28;119245;-87
2021/12/23 07:48:56;;;;;;;28.03;14.87;;;1.00;74.70;;;1.48;53.18;98676.97;4878144;28;123031;-87
2021/12/23 07:51:25;;;;;;;28.20;14.00;;;1.00;74.70;;;1.52;53.07;98678.91;4874221;28;124401;-88
2021/12/23 07:57:33;;;;;;;27.70;14.73;;;1.00;74.80;;;1.60;52.64;98685.78;4876806;28;119065;-88
2021/12/23 08:00:00;;;;;;;34.13;14.70;;;1.10;74.80;;;1.61;52.72;98687.44;4867487;28;124082;-88
2021/12/23 08:02:47;;;;;;;28.47;14.57;;;1.10;74.80;;;1.69;52.74;98680.69;4872395;28;123029;-88
2021/12/23 08:05:36;;;;;;;24.87;14.30;;;1.20;75.00;;;1.69;52.90;98675.25;4896498;28;118911;-90
2021/12/23 08:08:22;;;;;;;27.57;13.93;;;1.20;74.90;;;1.69;52.52;98673.38;4904763;28;118252;-88
2021/12/23 08:10:50;;;;;;;31.43;16.00;;;1.20;74.90;;;1.63;52.81;98666.22;4887451;28;122974;-90
2021/12/23 08:13:21;;;;;;;25.53;14.90;;;1.10;74.60;;;1.64;52.47;98667.03;4908636;28;123128;-89
2021/12/23 08:16:46;;;;;;;29.30;16.00;;;1.10;74.70;;;1.67;52.96;98672.81;4906839;28;119673;-89
2021/12/23 08:19:13;;;;;;;25.67;14.20;;;1.20;74.80;;;1.63;53.07;98671.66;4893774;28;119749;-88
2021/12/23 08:21:40;;;;;;;29.23;16.00;;;1.20;74.90;;;1.68;53.36;98669.00;4899493;28;122069;-87
2021/12/23 08:24:27;;;;;;;31.40;16.40;;;1.80;75.50;;;1.76;53.09;98654.91;4879562;28;121594;-89
2021/12/23 08:27:34;;;;;;;28.30;14.70;;;1.20;75.00;;;1.81;53.00;98651.41;4889741;28;117296;-89
2021/12/23 08:30:07;;;;;;;34.23;17.73;;;1.20;75.10;;;1.81;53.22;98643.25;4879927;28;119041;-88
2021/12/23 08:33:11;;;;;;;30.23;15.87;;;1.30;75.20;;;1.86;52.52;98626.13;4909092;28;121653;-88
2021/12/23 08:35:39;;;;;;;32.37;17.00;;;1.30;75.10;;;1.84;52.53;98625.56;4893718;28;123951;-88
2021/12/23 08:38:07;;;;;;;31.50;16.37;;;1.30;75.10;;;1.86;53.05;98631.56;4906381;28;119034;-85
2021/12/23 08:40:35;;;;;;;29.67;16.17;;;1.30;75.00;;;1.88;52.47;98641.13;4882473;28;118387;-88
2021/12/23 08:43:02;;;;;;;30.60;16.43;;;1.30;75.00;;;1.92;52.76;98631.34;4898186;28;124168;-87
2021/12/23 08:45:34;;;;;;;30.90;14.73;;;1.40;75.20;;;1.98;53.05;98635.75;4898773;28;123775;-84
2021/12/23 08:48:00;;;;;;;25.07;15.30;;;1.40;75.20;;;2.03;52.63;98642.34;4893152;28;119510;-84
2021/12/23 08:51:05;;;;;;;26.67;13.47;;;1.50;75.20;;;2.11;52.74;98639.94;4895373;28;118404;-88
2021/12/23 08:53:32;;;;;;;30.00;14.37;;;1.50;75.30;;;2.12;52.65;98647.03;4894900;28;123112;-86
2021/12/23 08:56:18;;;;;;;26.93;15.00;;;1.60;75.30;;;2.19;52.88;98644.09;4897303;28;122943;-87
2021/12/23 08:59:06;;;;;;;29.57;14.87;;;1.60;75.30;;;2.23;52.74;98642.50;4900309;28;119495;-88
2021/12/23 09:01:32;;;;;;;28.67;14.70;;;1.70;75.40;;;2.26;52.79;98630.22;4884765;28;118276;-89
2021/12/23 09:04:21;;;;;;;24.83;15.77;;;1.70;75.40;;;2.35;52.80;98613.13;4879496;28;123820;-88
2021/12/23 09:06:49;;;;;;;27.57;15.03;;;1.70;75.40;;;2.39;52.34;98613.41;4875586;28;123580;-88
2021/12/23 09:09:18;;;;;;;28.27;15.57;;;1.80;75.50;;;2.45;52.98;98600.66;4881495;28;119883;-88
2021/12/23 09:11:46;;;;;;;31.17;15.70;;;1.80;75.40;;;2.49;52.64;98618.91;4879039;28;119012;-89
2021/12/23 09:14:15;;;;;;;29.20;15.60;;;1.90;75.50;;;2.52;52.56;98623.84;4875809;28;123483;-89
2021/12/23 09:17:40;;;;;;;24.30;15.47;;;1.90;75.40;;;2.59;52.32;98629.06;4874178;28;124393;-88
2021/12/23 09:23:48;;;;;;;30.27;15.90;;;2.00;75.60;;;2.61;52.72;98638.63;4887522;28;118477;-88
2021/12/23 09:27:30;;;;;;;32.70;17.50;;;2.40;76.30;;;2.66;52.74;98626.94;4873345;28;123348;-89
2021/12/23 09:34:02;;;;;;;30.90;15.60;;;2.10;75.50;;;2.69;52.57;98629.13;4885174;28;120055;-89
2021/12/23 09:36:48;;;;;;;33.47;16.20;;;2.10;75.60;;;2.74;53.04;98633.75;4884047;28;118950;-89
2021/12/23 09:39:33;;;;;;;33.90;18.50;;;2.20;75.60;;;2.76;52.70;98618.78;4862044;28;123795;-89
2021/12/23 09:42:03;;;;;;;27.77;14.00;;;2.20;75.60;;;2.79;53.01;98622.88;4865744;28;123437;-89
2021/12/23 09:44:36;;;;;;;30.93;15.63;;;2.20;75.60;;;2.85;52.90;98610.94;4866785;28;118580;-88
2021/12/23 09:47:03;;;;;;;26.33;14.83;;;2.30;75.70;;;2.90;52.83;98610.09;4866037;28;119086;-89
2021/12/23 09:50:09;;;;;;;30.60;14.50;;;2.40;75.80;;;3.00;52.61;98610.16;4876366;28;123692;-88
2021/12/23 09:52:47;;;;;;;29.70;15.60;;;2.40;75.80;;;3.03;52.57;98606.88;4883572;28;123942;-88
2021/12/23 09:55:37;;;;;;;31.13;16.77;;;2.40;75.70;;;3.06;52.49;98596.25;4868571;28;119340;-89
2021/12/23 09:58:23;;;;;;;29.00;14.83;;;2.50;75.70;;;3.09;52.55;98595.72;4852841;28;117845;-89
2021/12/23 10:00:51;;;;;;;34.40;19.20;;;2.60;75.80;;;3.06;52.51;98590.81;4863586;28;123556;-88
2021/12/23 10:03:37;;;;;;;28.50;16.33;;;2.50;75.60;;;3.05;52.11;98577.41;4887804;28;123070;-88
2021/12/23 10:06:09;;;;;;;34.13;17.13;;;2.50;75.40;;;3.03;52.51;98574.94;4903353;28;120102;-89
2021/12/23 10:08:56;;;;;;;31.70;17.17;;;2.50;75.50;;;3.10;52.54;98580.16;4875802;28;118304;-89
2021/12/23 10:11:45;;;;;;;28.97;15.40;;;2.50;75.60;;;3.12;52.51;98586.19;4885011;28;123059;-88
2021/12/23 10:37:36;;;;;;;32.43;17.10;;;2.90;75.60;;;3.47;52.33;98560.84;4898391;28;123841;-89
2021/12/23 10:40:03;;;;;;;27.40;15.50;;;2.90;75.60;;;3.47;52.69;98562.75;4890102;28;119976;-89
2021/12/23 10:42:50;;;;;;;28.87;14.63;;;2.90;75.60;;;3.57;52.52;98557.28;4885838;28;117477;-90
2021/12/23 10:45:17;;;;;;;23.90;14.07;;;3.00;75.80;;;3.60;52.44;98547.72;4895614;28;123192;-89
2021/12/23 10:48:09;;;;;;;31.53;15.67;;;3.00;75.90;;;3.70;52.24;98539.53;4883308;28;123424;-89
2021/12/23 10:51:32;;;;;;;32.07;15.53;;;3.10;75.80;;;3.75;52.29;98534.06;4907284;28;118049;-89
2021/12/23 10:54:19;;;;;;;31.80;16.87;;;3.10;75.80;;;3.75;52.24;98534.06;4898115;28;118329;-90
2021/12/23 11:00:19;;;;;;;34.80;15.90;;;3.20;75.70;;;3.83;52.23;98508.09;4882683;28;124141;-90
2021/12/23 11:03:00;;;;;;;27.90;14.90;;;3.20;75.70;;;3.91;52.02;98502.06;4887659;28;119682;-90
2021/12/23 11:05:32;;;;;;;23.47;13.93;;;3.30;75.90;;;3.95;52.10;98498.53;4862154;28;120226;-89
2021/12/23 11:08:32;;;;;;;28.33;14.70;;;3.40;75.90;;;4.09;52.27;98500.69;4877562;28;124170;-89
2021/12/23 11:29:43;;;;;;;14.57;9.53;;;4.20;77.80;;;4.99;52.95;98470.41;4867589;28;119065;-88
2021/12/23 11:35:45;;;;;;;19.40;10.20;;;4.20;77.70;;;5.13;52.46;98472.53;4861949;28;122892;-88
2021/12/23 11:38:12;;;;;;;19.77;10.60;;;4.50;77.50;;;5.27;52.62;98457.09;4881842;28;119869;-88
2021/12/23 11:46:02;;;;;;;22.97;11.43;;;4.70;77.20;;;5.51;52.21;98438.00;4876220;28;122855;-89
2021/12/23 11:48:52;;;;;;;24.77;12.53;;;4.80;77.10;;;5.57;51.52;98433.28;4871486;28;118884;-89
2021/12/23 11:51:53;;;;;;;24.33;12.33;;;4.80;76.90;;;5.58;51.78;98430.22;4870708;28;119501;-90
2021/12/23 11:54:43;;;;;;;21.80;12.50;;;4.90;76.90;;;5.64;52.54;98429.09;4841311;28;124077;-88
2021/12/23 11:57:19;;;;;;;22.80;13.93;;;5.00;77.40;;;5.70;52.43;98416.97;4869267;28;123998;-89
2021/12/23 12:00:43;;;;;;;22.73;12.77;;;5.00;77.30;;;5.80;52.28;98410.53;4853380;28;120505;-89
2021/12/23 12:03:03;;;;;;;24.33;13.37;;;5.10;77.40;;;5.88;52.05;98390.72;4862691;28;119453;-87
2021/12/23 12:05:35;;;;;;;27.63;14.43;;;5.20;77.40;;;5.90;51.84;98395.91;4865806;28;124083;-88
2021/12/23 12:08:10;;;;;;;30.10;15.30;;;5.30;77.70;;;5.93;52.12;98395.31;4856323;28;123854;-87
2021/12/23 12:10:41;;;;;;;26.63;13.73;;;5.20;76.60;;;5.91;51.56;98390.16;4873161;28;118559;-89
2021/12/23 12:13:11;;;;;;;27.50;14.10;;;5.30;76.50;;;5.95;51.68;98390.41;4869850;28;118970;-89
2021/12/23 12:16:29;;;;;;;28.23;15.27;;;5.30;76.50;;;5.95;50.71;98372.03;4850970;28;122057;-91
2021/12/23 12:19:15;;;;;;;24.00;12.80;;;5.30;76.00;;;5.95;51.57;98385.72;4869201;28;122757;-89
2021/12/23 12:21:43;;;;;;;23.37;12.83;;;5.40;76.10;;;5.97;52.09;98385.47;4857654;29;118810;-88
2021/12/23 12:24:18;;;;;;;25.53;13.40;;;5.40;76.10;;;6.04;51.33;98377.66;4857681;29;118501;-87
2021/12/23 12:27:01;;;;;;;24.97;14.10;;;5.40;76.00;;;6.08;51.23;98381.47;4852278;29;123158;-89
2021/12/23 12:30:06;;;;;;;21.87;14.10;;;5.30;75.90;;;6.12;51.09;98367.97;4845462;28;122959;-89
2021/12/23 12:32:37;;;;;;;23.73;13.40;;;5.50;75.90;;;6.13;50.99;98364.97;4838223;29;120103;-89
2021/12/23 12:35:20;;;;;;;28.33;14.63;;;5.50;76.00;;;6.20;50.63;98368.13;4841014;29;118980;-89
2021/12/23 12:38:45;;;;;;;27.70;14.77;;;5.70;75.90;;;6.22;51.00;98356.06;4848069;29;123285;-88
2021/12/23 12:41:37;;;;;;;25.07;13.90;;;5.60;75.80;;;6.22;51.38;98372.53;4840394;29;123105;-89
2021/12/23 12:44:27;;;;;;;23.60;13.90;;;5.60;75.70;;;6.24;50.99;98370.31;4840063;29;119880;-89
2021/12/23 12:47:09;;;;;;;20.90;12.10;;;5.60;75.70;;;6.26;51.06;98379.03;4852688;29;118349;-88
2021/12/23 12:49:40;;;;;;;23.53;12.80;;;5.70;75.70;;;6.27;51.27;98370.53;4821946;29;123900;-88
2021/12/23 12:52:19;;;;;;;29.60;14.43;;;5.70;75.70;;;6.31;50.96;98365.25;4848978;28;123800;-89
2021/12/23 12:55:23;;;;;;;22.87;13.50;;;7.10;76.90;;;6.33;50.81;98371.28;4870841;28;120340;-89
2021/12/23 12:58:03;;;;;;;25.47;13.27;;;5.70;76.00;;;6.34;51.08;98364.66;4872388;28;119980;-87
2021/12/23 13:00:39;;;;;;;22.60;12.63;;;5.80;75.60;;;6.33;50.90;98368.53;4842830;28;123158;-89
2021/12/23 13:03:19;;;;;;;22.80;12.70;;;5.70;75.50;;;6.34;50.70;98354.53;4859154;28;123104;-90
2021/12/23 13:05:52;;;;;;;25.50;13.17;;;5.80;75.60;;;6.36;51.19;98354.22;4857582;28;117829;-89
2021/12/23 13:08:40;;;;;;;23.60;12.93;;;6.20;76.00;;;6.42;50.62;98350.28;4822161;28;118849;-87
2021/12/23 13:11:12;;;;;;;22.40;13.30;;;5.80;75.70;;;6.43;51.48;98340.97;4874259;28;123080;-90
2021/12/23 13:13:45;;;;;;;25.40;12.40;;;5.90;75.80;;;6.48;50.93;98338.13;4868344;28;123125;-88
2021/12/23 13:16:23;;;;;;;21.33;12.37;;;6.00;75.90;;;6.53;50.75;98329.00;4873150;28;119845;-89
2021/12/23 13:19:13;;;;;;;20.63;11.90;;;5.90;75.70;;;6.57;51.36;98335.53;4863448;28;119005;-89
2021/12/23 13:21:45;;;;;;;28.73;13.23;;;6.00;75.80;;;6.58;50.95;98338.00;4867388;28;122482;-89
2021/12/23 13:25:08;;;;;;;19.33;12.03;;;6.00;75.70;;;6.60;51.37;98333.00;4855549;28;122566;-89
2021/12/23 13:27:41;;;;;;;19.13;10.73;;;6.00;75.70;;;6.65;51.07;98332.13;4869987;28;118444;-90
2021/12/23 13:30:27;;;;;;;17.93;10.00;;;6.00;75.90;;;6.73;51.21;98314.16;4852312;28;118291;-88
2021/12/23 13:33:01;;;;;;;13.57;7.63;;;6.10;76.10;;;6.83;50.93;98317.56;4854331;28;123172;-90
2021/12/23 13:35:31;;;;;;;15.00;7.20;;;6.20;76.20;;;6.92;51.26;98319.63;4852584;28;123436;-88
2021/12/23 13:37:57;;;;;;;15.27;8.20;;;6.30;76.40;;;7.00;51.20;98319.72;4824016;28;117295;-90
2021/12/23 13:44:14;;;;;;;12.60;8.30;;;6.40;76.20;;;7.15;51.12;98302.19;4865451;28;124021;-89
2021/12/23 13:47:22;;;;;;;10.50;6.03;;;6.50;76.20;;;7.25;50.48;98298.41;4871266;28;123911;-89
2021/12/23 13:50:27;;;;;;;8.90;5.07;;;6.60;76.20;;;7.34;50.62;98299.38;4865857;28;119291;-89
2021/12/23 13:53:15;;;;;;;9.83;5.17;;;6.60;76.10;;;7.43;50.78;98297.53;4872779;28;119227;-89
2021/12/23 13:55:42;;;;;;;8.30;5.07;;;6.80;76.00;;;7.51;50.47;98301.50;4873175;28;122992;-90
2021/12/23 14:02:13;;;;;;;6.20;4.20;;;6.90;75.70;;;7.69;50.06;98302.53;4870183;28;117956;-90
2021/12/23 14:05:10;;;;;;;7.23;4.80;;;7.10;75.60;;;7.74;50.30;98305.19;4872827;28;117228;-89
2021/12/23 14:07:57;;;;;;;8.40;4.00;;;7.10;75.40;;;7.84;50.17;98293.16;4878393;28;123924;-89
2021/12/23 14:10:44;;;;;;;8.60;4.70;;;7.20;75.20;;;7.93;49.91;98307.81;4874753;28;125104;-89
2021/12/23 14:13:16;;;;;;;8.27;4.57;;;7.30;75.00;;;7.99;49.96;98292.03;4891644;28;119620;-92
2021/12/23 14:16:04;;;;;;;6.90;4.40;;;7.40;75.00;;;8.07;49.44;98294.03;4871178;28;119006;-90
2021/12/23 14:19:48;;;;;;;11.37;5.40;;;7.50;74.90;;;8.12;49.48;98297.50;4883098;28;123693;-89
2021/12/23 14:25:06;;;;;;;6.43;4.17;;;7.60;74.50;;;8.23;49.27;98298.09;4883356;28;118961;-90
2021/12/23 14:27:52;;;;;;;6.97;4.30;;;7.70;74.50;;;8.30;49.27;98290.22;4876708;28;118119;-90
2021/12/23 14:30:19;;;;;;;5.20;3.40;;;7.70;74.30;;;8.33;48.96;98288.81;4859998;28;122445;-89
2021/12/23 14:32:46;;;;;;;10.23;4.20;;;7.80;74.10;;;8.38;48.79;98281.22;4876226;28;124249;-88